Time;durP1;ratioP1;P1;durP2;ratioP2;P2;SDS_P1;SDS_P2;PMS_P1;PMS_P2;Temp;Humidity;BMP_temperature;BMP_pressure;BME280_temperature;BME280_humidity;BME280_pressure;Samples;Min_cycle;Max_cycle;Signal;HPM_P1;HPM_P2
2023/02/07 00:00:00;;;;;;;3.1;3.0;;;;;;;1.2;100.0;103750;;;;
2023/02/07 00:01:00;;;;;;;3.1;3.0;;;;;;;1.3;100.0;103750;;;;
2023/02/07 00:02:00;;;;;;;3.1;3.0;;;;;;;1.3;100.0;103750;;;;
2023/02/07 00:03:00;;;;;;;3.1;3.0;;;;;;;1.3;100.0;103750;;;;
2023/02/07 00:04:00;;;;;;;3.1;3.0;;;;;;;1.3;100.0;103750;;;;
2023/02/07 00:05:00;;;;;;;3.1;3.0;;;;;;;1.2;100.0;103750;;;;
2023/02/07 00:06:04;;;;;;;3.1;3.0;;;;;;;1.2;100.0;103750;;;;
2023/02/07 00:07:00;;;;;;;3.1;3.0;;;;;;;1.2;100.0;103740;;;;
2023/02/07 00:08:00;;;;;;;3.1;3.0;;;;;;;1.2;100.0;103740;;;;
2023/02/07 00:09:01;;;;;;;3.1;3.0;;;;;;;1.2;100.0;103750;;;;
2023/02/07 00:10:00;;;;;;;3.1;3.0;;;;;;;1.2;100.0;103750;;;;
2023/02/07 00:11:04;;;;;;;3.1;3.0;;;;;;;1.1;100.0;103750;;;;
2023/02/07 00:12:00;;;;;;;3.1;3.0;;;;;;;1.1;100.0;103750;;;;
2023/02/07 00:13:00;;;;;;;3.1;3.0;;;;;;;1.2;100.0;103750;;;;
2023/02/07 00:14:00;;;;;;;3.1;3.0;;;;;;;1.2;100.0;103750;;;;
2023/02/07 00:15:00;;;;;;;3.1;3.0;;;;;;;1.1;100.0;103750;;;;
2023/02/07 00:16:00;;;;;;;3.1;3.0;;;;;;;1.1;100.0;103750;;;;
2023/02/07 00:17:00;;;;;;;3.1;3.0;;;;;;;1.1;100.0;103760;;;;
2023/02/07 00:18:00;;;;;;;3.1;3.0;;;;;;;1.1;100.0;103760;;;;
2023/02/07 00:19:00;;;;;;;3.1;3.0;;;;;;;1.0;100.0;103750;;;;
2023/02/07 00:20:00;;;;;;;3.1;3.0;;;;;;;1.0;100.0;103750;;;;
2023/02/07 00:21:01;;;;;;;3.4;3.3;;;;;;;1.1;100.0;103760;;;;
2023/02/07 00:22:00;;;;;;;3.4;3.3;;;;;;;1.1;100.0;103760;;;;
2023/02/07 00:23:00;;;;;;;3.4;3.3;;;;;;;1.1;100.0;103760;;;;
2023/02/07 00:24:00;;;;;;;3.4;3.3;;;;;;;1.1;100.0;103760;;;;
2023/02/07 00:25:00;;;;;;;3.4;3.3;;;;;;;1.0;100.0;103750;;;;
2023/02/07 00:26:00;;;;;;;3.4;3.3;;;;;;;1.0;100.0;103750;;;;
2023/02/07 00:27:00;;;;;;;3.4;3.3;;;;;;;0.9;100.0;103760;;;;
2023/02/07 00:28:00;;;;;;;3.4;3.3;;;;;;;0.9;100.0;103760;;;;
2023/02/07 00:29:00;;;;;;;3.4;3.3;;;;;;;1.0;100.0;103760;;;;
2023/02/07 00:30:00;;;;;;;3.4;3.3;;;;;;;1.0;100.0;103760;;;;
2023/02/07 00:31:04;;;;;;;3.4;3.3;;;;;;;0.9;100.0;103760;;;;
2023/02/07 00:32:00;;;;;;;3.4;3.3;;;;;;;0.9;100.0;103760;;;;
2023/02/07 00:33:00;;;;;;;3.4;3.3;;;;;;;0.9;100.0;103750;;;;
2023/02/07 00:34:02;;;;;;;3.4;3.3;;;;;;;0.9;100.0;103750;;;;
2023/02/07 00:35:00;;;;;;;3.4;3.3;;;;;;;0.9;100.0;103750;;;;
2023/02/07 00:36:01;;;;;;;3.4;3.3;;;;;;;0.9;100.0;103750;;;;
2023/02/07 00:37:00;;;;;;;3.4;3.3;;;;;;;0.9;100.0;103750;;;;
2023/02/07 00:38:00;;;;;;;3.4;3.3;;;;;;;0.9;100.0;103750;;;;
2023/02/07 00:39:02;;;;;;;3.4;3.3;;;;;;;0.9;100.0;103750;;;;
2023/02/07 00:40:00;;;;;;;3.4;3.3;;;;;;;0.9;100.0;103750;;;;
2023/02/07 00:41:00;;;;;;;3.3;3.2;;;;;;;0.9;100.0;103750;;;;
2023/02/07 00:42:00;;;;;;;3.3;3.2;;;;;;;0.9;100.0;103750;;;;
2023/02/07 00:43:00;;;;;;;3.3;3.2;;;;;;;0.8;100.0;103750;;;;
2023/02/07 00:44:00;;;;;;;3.3;3.2;;;;;;;0.8;100.0;103750;;;;
2023/02/07 00:45:00;;;;;;;3.3;3.2;;;;;;;0.9;100.0;103750;;;;
2023/02/07 00:46:01;;;;;;;3.3;3.2;;;;;;;0.9;100.0;103750;;;;
2023/02/07 00:47:00;;;;;;;3.3;3.2;;;;;;;0.9;100.0;103740;;;;
2023/02/07 00:48:00;;;;;;;3.3;3.2;;;;;;;0.9;100.0;103740;;;;
2023/02/07 00:49:00;;;;;;;3.3;3.2;;;;;;;0.8;100.0;103740;;;;
2023/02/07 00:50:00;;;;;;;3.3;3.2;;;;;;;0.8;100.0;103740;;;;
2023/02/07 00:51:00;;;;;;;3.3;3.2;;;;;;;0.8;100.0;103740;;;;
2023/02/07 00:52:00;;;;;;;3.3;3.2;;;;;;;0.8;100.0;103740;;;;
2023/02/07 00:53:00;;;;;;;3.3;3.2;;;;;;;0.8;100.0;103740;;;;
2023/02/07 00:54:00;;;;;;;3.3;3.2;;;;;;;0.8;100.0;103740;;;;
2023/02/07 00:55:00;;;;;;;3.3;3.2;;;;;;;0.8;100.0;103740;;;;
2023/02/07 00:56:00;;;;;;;3.3;3.2;;;;;;;0.8;100.0;103740;;;;
2023/02/07 00:57:00;;;;;;;3.3;3.2;;;;;;;0.8;100.0;103750;;;;
2023/02/07 00:58:00;;;;;;;3.3;3.2;;;;;;;0.8;100.0;103750;;;;
2023/02/07 00:59:00;;;;;;;3.3;3.2;;;;;;;0.7;100.0;103750;;;;
2023/02/07 01:00:00;;;;;;;3.3;3.2;;;;;;;0.7;100.0;103750;;;;
2023/02/07 01:01:00;;;;;;;3.6;3.5;;;;;;;0.8;100.0;103750;;;;
2023/02/07 01:02:00;;;;;;;3.6;3.5;;;;;;;0.8;100.0;103750;;;;
2023/02/07 01:03:00;;;;;;;3.6;3.5;;;;;;;0.8;100.0;103750;;;;
2023/02/07 01:04:00;;;;;;;3.6;3.5;;;;;;;0.8;100.0;103750;;;;
2023/02/07 01:05:00;;;;;;;3.6;3.5;;;;;;;0.8;100.0;103750;;;;
2023/02/07 01:06:00;;;;;;;3.6;3.5;;;;;;;0.8;100.0;103750;;;;
2023/02/07 01:07:00;;;;;;;3.6;3.5;;;;;;;0.8;100.0;103760;;;;
2023/02/07 01:08:00;;;;;;;3.6;3.5;;;;;;;0.8;100.0;103760;;;;
2023/02/07 01:09:01;;;;;;;3.6;3.5;;;;;;;0.8;100.0;103760;;;;
2023/02/07 01:10:00;;;;;;;3.6;3.5;;;;;;;0.8;100.0;103760;;;;
2023/02/07 01:11:01;;;;;;;3.6;3.5;;;;;;;0.8;100.0;103750;;;;
2023/02/07 01:12:00;;;;;;;3.6;3.5;;;;;;;0.8;100.0;103750;;;;
2023/02/07 01:13:00;;;;;;;3.6;3.5;;;;;;;0.8;100.0;103750;;;;
2023/02/07 01:14:00;;;;;;;3.6;3.5;;;;;;;0.8;100.0;103750;;;;
2023/02/07 01:15:00;;;;;;;3.6;3.5;;;;;;;0.8;100.0;103750;;;;
2023/02/07 01:16:00;;;;;;;3.6;3.5;;;;;;;0.8;100.0;103750;;;;
2023/02/07 01:17:00;;;;;;;3.6;3.5;;;;;;;0.8;100.0;103760;;;;
2023/02/07 01:18:00;;;;;;;3.6;3.5;;;;;;;0.8;100.0;103760;;;;
2023/02/07 01:19:01;;;;;;;3.6;3.5;;;;;;;0.8;100.0;103760;;;;
2023/02/07 01:20:00;;;;;;;3.6;3.5;;;;;;;0.8;100.0;103760;;;;
2023/02/07 01:21:00;;;;;;;3.1;3.0;;;;;;;0.7;100.0;103760;;;;
2023/02/07 01:22:00;;;;;;;3.1;3.0;;;;;;;0.7;100.0;103760;;;;
2023/02/07 01:23:00;;;;;;;3.1;3.0;;;;;;;0.7;100.0;103760;;;;
2023/02/07 01:24:00;;;;;;;3.1;3.0;;;;;;;0.7;100.0;103760;;;;
2023/02/07 01:25:00;;;;;;;3.1;3.0;;;;;;;0.8;100.0;103750;;;;
2023/02/07 01:26:03;;;;;;;3.1;3.0;;;;;;;0.8;100.0;103750;;;;
2023/02/07 01:27:00;;;;;;;3.1;3.0;;;;;;;0.8;100.0;103750;;;;
2023/02/07 01:28:00;;;;;;;3.1;3.0;;;;;;;0.8;100.0;103750;;;;
2023/02/07 01:29:01;;;;;;;3.1;3.0;;;;;;;0.7;100.0;103750;;;;
2023/02/07 01:30:00;;;;;;;3.1;3.0;;;;;;;0.7;100.0;103750;;;;
2023/02/07 01:31:04;;;;;;;3.1;3.0;;;;;;;0.8;100.0;103750;;;;
2023/02/07 01:32:00;;;;;;;3.1;3.0;;;;;;;0.8;100.0;103750;;;;
2023/02/07 01:33:00;;;;;;;3.1;3.0;;;;;;;0.8;100.0;103760;;;;
2023/02/07 01:34:00;;;;;;;3.1;3.0;;;;;;;0.8;100.0;103760;;;;
2023/02/07 01:35:00;;;;;;;3.1;3.0;;;;;;;0.7;100.0;103760;;;;
2023/02/07 01:36:04;;;;;;;3.1;3.0;;;;;;;0.7;100.0;103760;;;;
2023/02/07 01:37:00;;;;;;;3.1;3.0;;;;;;;0.7;100.0;103750;;;;
2023/02/07 01:38:01;;;;;;;3.1;3.0;;;;;;;0.7;100.0;103750;;;;
2023/02/07 01:39:02;;;;;;;3.1;3.0;;;;;;;0.8;100.0;103740;;;;
2023/02/07 01:40:00;;;;;;;3.1;3.0;;;;;;;0.8;100.0;103740;;;;
2023/02/07 01:41:00;;;;;;;3.3;3.2;;;;;;;0.6;100.0;103750;;;;
2023/02/07 01:42:00;;;;;;;3.3;3.2;;;;;;;0.6;100.0;103750;;;;
2023/02/07 01:43:00;;;;;;;3.3;3.2;;;;;;;0.6;100.0;103760;;;;
2023/02/07 01:44:00;;;;;;;3.3;3.2;;;;;;;0.6;100.0;103760;;;;
2023/02/07 01:45:03;;;;;;;3.3;3.2;;;;;;;0.6;100.0;103760;;;;
2023/02/07 01:46:00;;;;;;;3.3;3.2;;;;;;;0.6;100.0;103760;;;;
2023/02/07 01:47:00;;;;;;;3.3;3.2;;;;;;;0.6;100.0;103760;;;;
2023/02/07 01:48:06;;;;;;;3.3;3.2;;;;;;;0.6;100.0;103760;;;;
2023/02/07 01:49:03;;;;;;;3.3;3.2;;;;;;;0.6;100.0;103760;;;;
2023/02/07 01:50:00;;;;;;;3.3;3.2;;;;;;;0.6;100.0;103760;;;;
2023/02/07 01:51:03;;;;;;;3.3;3.2;;;;;;;0.6;100.0;103760;;;;
2023/02/07 01:52:03;;;;;;;3.3;3.2;;;;;;;0.6;100.0;103760;;;;
2023/02/07 01:53:01;;;;;;;3.3;3.2;;;;;;;0.6;100.0;103760;;;;
2023/02/07 01:54:02;;;;;;;3.3;3.2;;;;;;;0.6;100.0;103760;;;;
2023/02/07 01:55:03;;;;;;;3.3;3.2;;;;;;;0.5;100.0;103760;;;;
2023/02/07 01:56:03;;;;;;;3.3;3.2;;;;;;;0.5;100.0;103760;;;;
2023/02/07 01:57:04;;;;;;;3.3;3.2;;;;;;;0.5;100.0;103750;;;;
2023/02/07 01:58:02;;;;;;;3.3;3.2;;;;;;;0.5;100.0;103750;;;;
2023/02/07 01:59:01;;;;;;;3.3;3.2;;;;;;;0.5;100.0;103740;;;;
2023/02/07 02:00:00;;;;;;;3.3;3.2;;;;;;;0.5;100.0;103740;;;;
2023/02/07 02:01:02;;;;;;;3.3;3.2;;;;;;;0.5;100.0;103740;;;;
2023/02/07 02:02:01;;;;;;;3.3;3.2;;;;;;;0.5;100.0;103740;;;;
2023/02/07 02:03:00;;;;;;;3.3;3.2;;;;;;;0.6;100.0;103740;;;;
2023/02/07 02:04:00;;;;;;;3.3;3.2;;;;;;;0.6;100.0;103740;;;;
2023/02/07 02:05:00;;;;;;;3.3;3.2;;;;;;;0.5;100.0;103740;;;;
2023/02/07 02:06:00;;;;;;;3.3;3.2;;;;;;;0.5;100.0;103740;;;;
2023/02/07 02:07:00;;;;;;;3.3;3.2;;;;;;;0.4;100.0;103740;;;;
2023/02/07 02:08:00;;;;;;;3.3;3.2;;;;;;;0.4;100.0;103740;;;;
2023/02/07 02:09:01;;;;;;;3.3;3.2;;;;;;;0.4;100.0;103750;;;;
2023/02/07 02:10:00;;;;;;;3.3;3.2;;;;;;;0.4;100.0;103750;;;;
2023/02/07 02:11:10;;;;;;;3.3;3.2;;;;;;;0.4;100.0;103740;;;;
2023/02/07 02:12:10;;;;;;;3.3;3.2;;;;;;;0.4;100.0;103740;;;;
2023/02/07 02:13:03;;;;;;;3.3;3.2;;;;;;;0.4;100.0;103750;;;;
2023/02/07 02:14:08;;;;;;;3.3;3.2;;;;;;;0.4;100.0;103750;;;;
2023/02/07 02:15:08;;;;;;;3.3;3.2;;;;;;;0.3;100.0;103750;;;;
2023/02/07 02:16:09;;;;;;;3.3;3.2;;;;;;;0.3;100.0;103750;;;;
2023/02/07 02:17:10;;;;;;;3.3;3.2;;;;;;;0.3;100.0;103750;;;;
2023/02/07 02:18:10;;;;;;;3.3;3.2;;;;;;;0.3;100.0;103750;;;;
2023/02/07 02:19:10;;;;;;;3.3;3.2;;;;;;;0.3;100.0;103750;;;;
2023/02/07 02:20:00;;;;;;;3.2;3.1;;;;;;;0.3;100.0;103750;;;;
2023/02/07 02:21:10;;;;;;;3.2;3.1;;;;;;;0.3;100.0;103750;;;;
2023/02/07 02:22:10;;;;;;;3.2;3.1;;;;;;;0.3;100.0;103750;;;;
2023/02/07 02:23:10;;;;;;;3.2;3.1;;;;;;;0.2;100.0;103750;;;;
2023/02/07 02:24:00;;;;;;;3.2;3.1;;;;;;;0.2;100.0;103750;;;;
2023/02/07 02:25:10;;;;;;;3.2;3.1;;;;;;;0.2;100.0;103760;;;;
2023/02/07 02:26:03;;;;;;;3.2;3.1;;;;;;;0.2;100.0;103760;;;;
2023/02/07 02:27:10;;;;;;;3.2;3.1;;;;;;;0.2;100.0;103760;;;;
2023/02/07 02:28:03;;;;;;;3.2;3.1;;;;;;;0.2;100.0;103760;;;;
2023/02/07 02:29:10;;;;;;;3.2;3.1;;;;;;;0.2;100.0;103770;;;;
2023/02/07 02:30:10;;;;;;;3.2;3.1;;;;;;;0.2;100.0;103770;;;;
2023/02/07 02:31:07;;;;;;;3.2;3.1;;;;;;;0.2;100.0;103760;;;;
2023/02/07 02:32:07;;;;;;;3.2;3.1;;;;;;;0.2;100.0;103760;;;;
2023/02/07 02:33:09;;;;;;;3.2;3.1;;;;;;;0.1;100.0;103760;;;;
2023/02/07 02:34:09;;;;;;;3.2;3.1;;;;;;;0.1;100.0;103760;;;;
2023/02/07 02:35:01;;;;;;;3.2;3.1;;;;;;;0.1;100.0;103770;;;;
2023/02/07 02:36:08;;;;;;;3.2;3.1;;;;;;;0.1;100.0;103770;;;;
2023/02/07 02:37:07;;;;;;;3.2;3.1;;;;;;;0.1;100.0;103760;;;;
2023/02/07 02:38:09;;;;;;;3.2;3.1;;;;;;;0.1;100.0;103760;;;;
2023/02/07 02:39:09;;;;;;;3.2;3.1;;;;;;;0.0;100.0;103760;;;;
2023/02/07 02:40:05;;;;;;;3.5;3.4;;;;;;;0.0;100.0;103760;;;;
2023/02/07 02:41:04;;;;;;;3.5;3.4;;;;;;;0.2;100.0;103760;;;;
2023/02/07 02:42:08;;;;;;;3.5;3.4;;;;;;;0.2;100.0;103760;;;;
2023/02/07 02:43:06;;;;;;;3.5;3.4;;;;;;;-0.1;100.0;103750;;;;
2023/02/07 02:44:05;;;;;;;3.5;3.4;;;;;;;-0.1;100.0;103750;;;;
2023/02/07 02:45:05;;;;;;;3.5;3.4;;;;;;;-0.1;100.0;103760;;;;
2023/02/07 02:46:05;;;;;;;3.5;3.4;;;;;;;-0.1;100.0;103760;;;;
2023/02/07 02:47:01;;;;;;;3.5;3.4;;;;;;;-0.1;100.0;103760;;;;
2023/02/07 02:48:01;;;;;;;3.5;3.4;;;;;;;-0.1;100.0;103760;;;;
2023/02/07 02:49:01;;;;;;;3.5;3.4;;;;;;;-0.0;100.0;103750;;;;
2023/02/07 02:50:00;;;;;;;3.5;3.4;;;;;;;-0.0;100.0;103750;;;;
2023/02/07 02:51:00;;;;;;;3.5;3.4;;;;;;;0.0;100.0;103750;;;;
2023/02/07 02:52:00;;;;;;;3.5;3.4;;;;;;;0.0;100.0;103750;;;;
2023/02/07 02:53:00;;;;;;;3.5;3.4;;;;;;;-0.0;100.0;103750;;;;
2023/02/07 02:54:00;;;;;;;3.5;3.4;;;;;;;-0.0;100.0;103750;;;;
2023/02/07 02:55:00;;;;;;;3.5;3.4;;;;;;;0.0;100.0;103750;;;;
2023/02/07 02:56:00;;;;;;;3.5;3.4;;;;;;;0.0;100.0;103750;;;;
2023/02/07 02:57:10;;;;;;;3.5;3.4;;;;;;;0.0;100.0;103750;;;;
2023/02/07 02:58:10;;;;;;;3.5;3.4;;;;;;;0.0;100.0;103750;;;;
2023/02/07 02:59:06;;;;;;;3.5;3.4;;;;;;;0.1;100.0;103750;;;;
2023/02/07 03:00:00;;;;;;;3.7;3.6;;;;;;;0.1;100.0;103750;;;;
2023/02/07 03:01:10;;;;;;;3.7;3.6;;;;;;;0.1;100.0;103750;;;;
2023/02/07 03:02:11;;;;;;;3.7;3.6;;;;;;;0.1;100.0;103750;;;;
2023/02/07 03:03:00;;;;;;;3.7;3.6;;;;;;;-0.0;100.0;103750;;;;
2023/02/07 03:04:08;;;;;;;3.7;3.6;;;;;;;-0.0;100.0;103750;;;;
2023/02/07 03:05:00;;;;;;;3.7;3.6;;;;;;;-0.1;100.0;103750;;;;
2023/02/07 03:06:07;;;;;;;3.7;3.6;;;;;;;-0.1;100.0;103750;;;;
2023/02/07 03:07:03;;;;;;;3.7;3.6;;;;;;;-0.1;100.0;103750;;;;
2023/02/07 03:08:03;;;;;;;3.7;3.6;;;;;;;-0.1;100.0;103750;;;;
2023/02/07 03:09:10;;;;;;;3.7;3.6;;;;;;;0.0;100.0;103750;;;;
2023/02/07 03:10:06;;;;;;;3.7;3.6;;;;;;;0.0;100.0;103750;;;;
2023/02/07 03:11:10;;;;;;;3.7;3.6;;;;;;;-0.0;100.0;103750;;;;
2023/02/07 03:12:10;;;;;;;3.7;3.6;;;;;;;-0.0;100.0;103750;;;;
2023/02/07 03:13:07;;;;;;;3.7;3.6;;;;;;;-0.1;100.0;103740;;;;
2023/02/07 03:14:01;;;;;;;3.7;3.6;;;;;;;-0.1;100.0;103740;;;;
2023/02/07 03:15:10;;;;;;;3.7;3.6;;;;;;;-0.2;100.0;103740;;;;
2023/02/07 03:16:01;;;;;;;3.7;3.6;;;;;;;-0.2;100.0;103740;;;;
2023/02/07 03:17:08;;;;;;;3.7;3.6;;;;;;;-0.1;100.0;103750;;;;
2023/02/07 03:18:10;;;;;;;3.7;3.6;;;;;;;-0.1;100.0;103750;;;;
2023/02/07 03:19:07;;;;;;;3.7;3.6;;;;;;;-0.1;100.0;103750;;;;
2023/02/07 03:20:06;;;;;;;3.3;3.2;;;;;;;-0.1;100.0;103750;;;;
2023/02/07 03:21:02;;;;;;;3.3;3.2;;;;;;;-0.1;100.0;103760;;;;
2023/02/07 03:22:09;;;;;;;3.3;3.2;;;;;;;-0.1;100.0;103760;;;;
2023/02/07 03:23:01;;;;;;;3.3;3.2;;;;;;;-0.1;100.0;103750;;;;
2023/02/07 03:24:01;;;;;;;3.3;3.2;;;;;;;-0.1;100.0;103750;;;;
2023/02/07 03:25:00;;;;;;;3.3;3.2;;;;;;;-0.1;100.0;103750;;;;
2023/02/07 03:26:01;;;;;;;3.3;3.2;;;;;;;-0.1;100.0;103750;;;;
2023/02/07 03:27:03;;;;;;;3.3;3.2;;;;;;;-0.1;100.0;103760;;;;
2023/02/07 03:28:00;;;;;;;3.3;3.2;;;;;;;-0.1;100.0;103760;;;;
2023/02/07 03:29:02;;;;;;;3.3;3.2;;;;;;;-0.1;100.0;103750;;;;
2023/02/07 03:30:04;;;;;;;3.3;3.2;;;;;;;-0.1;100.0;103750;;;;
2023/02/07 03:31:01;;;;;;;3.3;3.2;;;;;;;-0.1;100.0;103750;;;;
2023/02/07 03:32:02;;;;;;;3.3;3.2;;;;;;;-0.1;100.0;103750;;;;
2023/02/07 03:33:04;;;;;;;3.3;3.2;;;;;;;-0.2;100.0;103750;;;;
2023/02/07 03:34:05;;;;;;;3.3;3.2;;;;;;;-0.2;100.0;103750;;;;
2023/02/07 03:35:10;;;;;;;3.3;3.2;;;;;;;-0.2;100.0;103750;;;;
2023/02/07 03:36:07;;;;;;;3.3;3.2;;;;;;;-0.2;100.0;103750;;;;
2023/02/07 03:37:00;;;;;;;3.3;3.2;;;;;;;-0.2;100.0;103750;;;;
2023/02/07 03:38:01;;;;;;;3.3;3.2;;;;;;;-0.2;100.0;103750;;;;
2023/02/07 03:39:00;;;;;;;3.3;3.2;;;;;;;-0.2;100.0;103750;;;;
2023/02/07 03:40:01;;;;;;;3.6;3.5;;;;;;;-0.2;100.0;103750;;;;
2023/02/07 03:41:03;;;;;;;3.6;3.5;;;;;;;-0.2;100.0;103750;;;;
2023/02/07 03:42:03;;;;;;;3.6;3.5;;;;;;;-0.2;100.0;103750;;;;
2023/02/07 03:43:04;;;;;;;3.6;3.5;;;;;;;-0.2;100.0;103750;;;;
2023/02/07 03:44:05;;;;;;;3.6;3.5;;;;;;;-0.2;100.0;103750;;;;
2023/02/07 03:45:00;;;;;;;3.6;3.5;;;;;;;-0.2;100.0;103740;;;;
2023/02/07 03:46:00;;;;;;;3.6;3.5;;;;;;;-0.2;100.0;103740;;;;
2023/02/07 03:47:00;;;;;;;3.6;3.5;;;;;;;-0.3;100.0;103750;;;;
2023/02/07 03:48:00;;;;;;;3.6;3.5;;;;;;;-0.3;100.0;103750;;;;
2023/02/07 03:49:00;;;;;;;3.6;3.5;;;;;;;-0.4;100.0;103750;;;;
2023/02/07 03:50:00;;;;;;;3.6;3.5;;;;;;;-0.4;100.0;103750;;;;
2023/02/07 03:51:00;;;;;;;3.6;3.5;;;;;;;-0.2;100.0;103760;;;;
2023/02/07 03:52:00;;;;;;;3.6;3.5;;;;;;;-0.2;100.0;103760;;;;
2023/02/07 03:53:00;;;;;;;3.6;3.5;;;;;;;-0.3;100.0;103750;;;;
2023/02/07 03:54:00;;;;;;;3.6;3.5;;;;;;;-0.3;100.0;103750;;;;
2023/02/07 03:55:00;;;;;;;3.6;3.5;;;;;;;-0.3;100.0;103740;;;;
2023/02/07 03:56:00;;;;;;;3.6;3.5;;;;;;;-0.3;100.0;103740;;;;
2023/02/07 03:57:00;;;;;;;3.6;3.5;;;;;;;-0.3;100.0;103740;;;;
2023/02/07 03:58:00;;;;;;;3.6;3.5;;;;;;;-0.3;100.0;103740;;;;
2023/02/07 03:59:00;;;;;;;3.6;3.5;;;;;;;-0.4;100.0;103740;;;;
2023/02/07 04:00:00;;;;;;;3.6;3.5;;;;;;;-0.4;100.0;103740;;;;
2023/02/07 04:01:00;;;;;;;3.6;3.5;;;;;;;-0.3;100.0;103740;;;;
2023/02/07 04:02:01;;;;;;;3.6;3.5;;;;;;;-0.3;100.0;103740;;;;
2023/02/07 04:03:00;;;;;;;3.6;3.5;;;;;;;-0.3;100.0;103740;;;;
2023/02/07 04:04:00;;;;;;;3.6;3.5;;;;;;;-0.3;100.0;103740;;;;
2023/02/07 04:05:00;;;;;;;3.6;3.5;;;;;;;-0.4;100.0;103730;;;;
2023/02/07 04:06:00;;;;;;;3.6;3.5;;;;;;;-0.4;100.0;103730;;;;
2023/02/07 04:07:00;;;;;;;3.6;3.5;;;;;;;-0.5;100.0;103730;;;;
2023/02/07 04:08:00;;;;;;;3.6;3.5;;;;;;;-0.5;100.0;103730;;;;
2023/02/07 04:09:00;;;;;;;3.6;3.5;;;;;;;-0.4;100.0;103740;;;;
2023/02/07 04:10:01;;;;;;;3.6;3.5;;;;;;;-0.4;100.0;103740;;;;
2023/02/07 04:11:01;;;;;;;3.6;3.5;;;;;;;-0.3;100.0;103740;;;;
2023/02/07 04:12:00;;;;;;;3.6;3.5;;;;;;;-0.3;100.0;103740;;;;
2023/02/07 04:13:00;;;;;;;3.6;3.5;;;;;;;-0.6;100.0;103740;;;;
2023/02/07 04:14:00;;;;;;;3.6;3.5;;;;;;;-0.6;100.0;103740;;;;
2023/02/07 04:15:01;;;;;;;3.6;3.5;;;;;;;-0.6;100.0;103740;;;;
2023/02/07 04:16:00;;;;;;;3.6;3.5;;;;;;;-0.6;100.0;103740;;;;
2023/02/07 04:17:00;;;;;;;3.6;3.5;;;;;;;-0.6;100.0;103740;;;;
2023/02/07 04:18:00;;;;;;;3.6;3.5;;;;;;;-0.6;100.0;103740;;;;
2023/02/07 04:19:00;;;;;;;3.6;3.5;;;;;;;-0.7;100.0;103740;;;;
2023/02/07 04:20:00;;;;;;;4.3;4.2;;;;;;;-0.7;100.0;103740;;;;
2023/02/07 04:21:01;;;;;;;4.3;4.2;;;;;;;-0.7;100.0;103730;;;;
2023/02/07 04:22:00;;;;;;;4.3;4.2;;;;;;;-0.7;100.0;103730;;;;
2023/02/07 04:23:00;;;;;;;4.3;4.2;;;;;;;-0.6;100.0;103740;;;;
2023/02/07 04:24:00;;;;;;;4.3;4.2;;;;;;;-0.6;100.0;103740;;;;
2023/02/07 04:25:00;;;;;;;4.3;4.2;;;;;;;-0.7;100.0;103750;;;;
2023/02/07 04:26:00;;;;;;;4.3;4.2;;;;;;;-0.7;100.0;103750;;;;
2023/02/07 04:27:00;;;;;;;4.3;4.2;;;;;;;-0.6;100.0;103740;;;;
2023/02/07 04:28:00;;;;;;;4.3;4.2;;;;;;;-0.6;100.0;103740;;;;
2023/02/07 04:29:00;;;;;;;4.3;4.2;;;;;;;-0.7;100.0;103730;;;;
2023/02/07 04:30:00;;;;;;;4.3;4.2;;;;;;;-0.7;100.0;103730;;;;
2023/02/07 04:31:00;;;;;;;4.3;4.2;;;;;;;-0.7;100.0;103740;;;;
2023/02/07 04:32:02;;;;;;;4.3;4.2;;;;;;;-0.7;100.0;103740;;;;
2023/02/07 04:33:00;;;;;;;4.3;4.2;;;;;;;-0.7;100.0;103720;;;;
2023/02/07 04:34:00;;;;;;;4.3;4.2;;;;;;;-0.7;100.0;103720;;;;
2023/02/07 04:35:00;;;;;;;4.3;4.2;;;;;;;-0.8;100.0;103740;;;;
2023/02/07 04:36:01;;;;;;;4.3;4.2;;;;;;;-0.8;100.0;103740;;;;
2023/02/07 04:37:00;;;;;;;4.3;4.2;;;;;;;-0.7;100.0;103740;;;;
2023/02/07 04:38:00;;;;;;;4.3;4.2;;;;;;;-0.7;100.0;103740;;;;
2023/02/07 04:39:00;;;;;;;4.3;4.2;;;;;;;-0.6;100.0;103730;;;;
2023/02/07 04:40:00;;;;;;;4.3;4.2;;;;;;;-0.6;100.0;103730;;;;
2023/02/07 04:41:03;;;;;;;4.3;4.2;;;;;;;-0.4;100.0;103740;;;;
2023/02/07 04:42:00;;;;;;;4.3;4.2;;;;;;;-0.4;100.0;103740;;;;
2023/02/07 04:43:00;;;;;;;4.3;4.2;;;;;;;-0.5;100.0;103730;;;;
2023/02/07 04:44:00;;;;;;;4.3;4.2;;;;;;;-0.5;100.0;103730;;;;
2023/02/07 04:45:00;;;;;;;4.3;4.2;;;;;;;-0.4;100.0;103730;;;;
2023/02/07 04:46:00;;;;;;;4.3;4.2;;;;;;;-0.4;100.0;103730;;;;
2023/02/07 04:47:00;;;;;;;4.3;4.2;;;;;;;-0.5;100.0;103730;;;;
2023/02/07 04:48:00;;;;;;;4.3;4.2;;;;;;;-0.5;100.0;103730;;;;
2023/02/07 04:49:00;;;;;;;4.3;4.2;;;;;;;-0.5;100.0;103730;;;;
2023/02/07 04:50:00;;;;;;;4.3;4.2;;;;;;;-0.5;100.0;103730;;;;
2023/02/07 04:51:00;;;;;;;4.3;4.2;;;;;;;-0.5;100.0;103730;;;;
2023/02/07 04:52:00;;;;;;;4.3;4.2;;;;;;;-0.5;100.0;103730;;;;
2023/02/07 04:53:00;;;;;;;4.3;4.2;;;;;;;-0.4;100.0;103710;;;;
2023/02/07 04:54:00;;;;;;;4.3;4.2;;;;;;;-0.4;100.0;103710;;;;
2023/02/07 04:55:00;;;;;;;4.3;4.2;;;;;;;-0.5;100.0;103710;;;;
2023/02/07 04:56:00;;;;;;;4.3;4.2;;;;;;;-0.5;100.0;103710;;;;
2023/02/07 04:57:00;;;;;;;4.3;4.2;;;;;;;-0.4;100.0;103710;;;;
2023/02/07 04:58:00;;;;;;;4.3;4.2;;;;;;;-0.4;100.0;103710;;;;
2023/02/07 04:59:00;;;;;;;4.3;4.2;;;;;;;-0.3;100.0;103700;;;;
2023/02/07 05:00:00;;;;;;;3.6;3.5;;;;;;;-0.3;100.0;103700;;;;
2023/02/07 05:01:00;;;;;;;3.6;3.5;;;;;;;-0.2;100.0;103710;;;;
2023/02/07 05:02:00;;;;;;;3.6;3.5;;;;;;;-0.2;100.0;103710;;;;
2023/02/07 05:03:01;;;;;;;3.6;3.5;;;;;;;-0.3;100.0;103710;;;;
2023/02/07 05:04:00;;;;;;;3.6;3.5;;;;;;;-0.3;100.0;103710;;;;
2023/02/07 05:05:00;;;;;;;3.6;3.5;;;;;;;-0.2;100.0;103710;;;;
2023/02/07 05:06:00;;;;;;;3.6;3.5;;;;;;;-0.2;100.0;103710;;;;
2023/02/07 05:07:00;;;;;;;3.6;3.5;;;;;;;-0.3;100.0;103710;;;;
2023/02/07 05:08:00;;;;;;;3.6;3.5;;;;;;;-0.3;100.0;103710;;;;
2023/02/07 05:09:00;;;;;;;3.6;3.5;;;;;;;-0.3;100.0;103710;;;;
2023/02/07 05:10:00;;;;;;;3.6;3.5;;;;;;;-0.3;100.0;103710;;;;
2023/02/07 05:11:00;;;;;;;3.6;3.5;;;;;;;-0.2;100.0;103710;;;;
2023/02/07 05:12:00;;;;;;;3.6;3.5;;;;;;;-0.2;100.0;103710;;;;
2023/02/07 05:13:00;;;;;;;3.6;3.5;;;;;;;-0.2;100.0;103710;;;;
2023/02/07 05:14:00;;;;;;;3.6;3.5;;;;;;;-0.2;100.0;103710;;;;
2023/02/07 05:15:00;;;;;;;3.6;3.5;;;;;;;-0.3;100.0;103710;;;;
2023/02/07 05:16:02;;;;;;;3.6;3.5;;;;;;;-0.3;100.0;103710;;;;
2023/02/07 05:17:00;;;;;;;3.6;3.5;;;;;;;-0.3;100.0;103720;;;;
2023/02/07 05:18:00;;;;;;;3.6;3.5;;;;;;;-0.3;100.0;103720;;;;
2023/02/07 05:19:00;;;;;;;3.6;3.5;;;;;;;-0.3;100.0;103720;;;;
2023/02/07 05:20:01;;;;;;;3.9;3.8;;;;;;;-0.3;100.0;103720;;;;
2023/02/07 05:21:00;;;;;;;3.9;3.8;;;;;;;-0.2;100.0;103720;;;;
2023/02/07 05:22:00;;;;;;;3.9;3.8;;;;;;;-0.2;100.0;103720;;;;
2023/02/07 05:23:00;;;;;;;3.9;3.8;;;;;;;-0.2;100.0;103730;;;;
2023/02/07 05:24:00;;;;;;;3.9;3.8;;;;;;;-0.2;100.0;103730;;;;
2023/02/07 05:25:00;;;;;;;3.9;3.8;;;;;;;-0.2;100.0;103730;;;;
2023/02/07 05:26:00;;;;;;;3.9;3.8;;;;;;;-0.2;100.0;103730;;;;
2023/02/07 05:27:00;;;;;;;3.9;3.8;;;;;;;-0.2;100.0;103730;;;;
2023/02/07 05:28:00;;;;;;;3.9;3.8;;;;;;;-0.2;100.0;103730;;;;
2023/02/07 05:29:00;;;;;;;3.9;3.8;;;;;;;-0.2;100.0;103730;;;;
2023/02/07 05:30:00;;;;;;;3.9;3.8;;;;;;;-0.2;100.0;103730;;;;
2023/02/07 05:31:00;;;;;;;3.9;3.8;;;;;;;-0.1;100.0;103730;;;;
2023/02/07 05:33:03;;;;;;;3.9;3.8;;;;;;;-0.1;100.0;103740;;;;
2023/02/07 05:34:00;;;;;;;3.9;3.8;;;;;;;-0.1;100.0;103740;;;;
2023/02/07 05:35:00;;;;;;;3.9;3.8;;;;;;;-0.1;100.0;103740;;;;
2023/02/07 05:36:01;;;;;;;3.9;3.8;;;;;;;-0.1;100.0;103740;;;;
2023/02/07 05:37:00;;;;;;;3.9;3.8;;;;;;;-0.3;100.0;103740;;;;
2023/02/07 05:38:00;;;;;;;3.9;3.8;;;;;;;-0.3;100.0;103740;;;;
2023/02/07 05:39:00;;;;;;;3.6;3.5;;;;;;;-0.3;100.0;103740;;;;
2023/02/07 05:40:00;;;;;;;3.6;3.5;;;;;;;-0.3;100.0;103740;;;;
2023/02/07 05:41:00;;;;;;;3.6;3.5;;;;;;;-0.3;100.0;103740;;;;
2023/02/07 05:42:00;;;;;;;3.6;3.5;;;;;;;-0.3;100.0;103740;;;;
2023/02/07 05:43:00;;;;;;;3.6;3.5;;;;;;;-0.3;100.0;103750;;;;
2023/02/07 05:44:00;;;;;;;3.6;3.5;;;;;;;-0.3;100.0;103750;;;;
2023/02/07 05:45:00;;;;;;;3.6;3.5;;;;;;;-0.3;100.0;103750;;;;
2023/02/07 05:46:00;;;;;;;3.6;3.5;;;;;;;-0.3;100.0;103750;;;;
2023/02/07 05:47:00;;;;;;;3.6;3.5;;;;;;;-0.3;100.0;103750;;;;
2023/02/07 05:48:00;;;;;;;3.6;3.5;;;;;;;-0.3;100.0;103750;;;;
2023/02/07 05:49:00;;;;;;;3.6;3.5;;;;;;;-0.3;100.0;103750;;;;
2023/02/07 05:50:00;;;;;;;3.6;3.5;;;;;;;-0.3;100.0;103750;;;;
2023/02/07 05:51:00;;;;;;;3.6;3.5;;;;;;;-0.3;100.0;103750;;;;
2023/02/07 05:52:00;;;;;;;3.6;3.5;;;;;;;-0.3;100.0;103750;;;;
2023/02/07 05:53:00;;;;;;;3.6;3.5;;;;;;;-0.3;100.0;103750;;;;
2023/02/07 05:54:00;;;;;;;3.6;3.5;;;;;;;-0.3;100.0;103750;;;;
2023/02/07 05:55:00;;;;;;;3.6;3.5;;;;;;;-0.4;100.0;103750;;;;
2023/02/07 05:56:00;;;;;;;3.6;3.5;;;;;;;-0.4;100.0;103750;;;;
2023/02/07 05:57:00;;;;;;;3.6;3.5;;;;;;;-0.3;100.0;103750;;;;
2023/02/07 05:58:00;;;;;;;3.6;3.5;;;;;;;-0.3;100.0;103750;;;;
2023/02/07 05:59:00;;;;;;;3.6;3.5;;;;;;;-0.4;100.0;103750;;;;
2023/02/07 06:00:00;;;;;;;3.6;3.5;;;;;;;-0.4;100.0;103750;;;;
2023/02/07 06:01:00;;;;;;;3.6;3.5;;;;;;;-0.4;100.0;103750;;;;
2023/02/07 06:02:00;;;;;;;3.6;3.5;;;;;;;-0.4;100.0;103750;;;;
2023/02/07 06:03:00;;;;;;;3.6;3.5;;;;;;;-0.5;100.0;103750;;;;
2023/02/07 06:04:00;;;;;;;3.6;3.5;;;;;;;-0.5;100.0;103750;;;;
2023/02/07 06:05:00;;;;;;;3.6;3.5;;;;;;;-0.6;100.0;103760;;;;
2023/02/07 06:06:00;;;;;;;3.6;3.5;;;;;;;-0.6;100.0;103760;;;;
2023/02/07 06:07:00;;;;;;;3.6;3.5;;;;;;;-0.7;100.0;103760;;;;
2023/02/07 06:08:00;;;;;;;3.6;3.5;;;;;;;-0.7;100.0;103760;;;;
2023/02/07 06:09:00;;;;;;;3.6;3.5;;;;;;;-0.6;100.0;103760;;;;
2023/02/07 06:10:00;;;;;;;3.6;3.5;;;;;;;-0.6;100.0;103760;;;;
2023/02/07 06:11:00;;;;;;;3.6;3.5;;;;;;;-0.5;100.0;103770;;;;
2023/02/07 06:12:00;;;;;;;3.6;3.5;;;;;;;-0.5;100.0;103770;;;;
2023/02/07 06:13:00;;;;;;;3.6;3.5;;;;;;;-0.5;100.0;103770;;;;
2023/02/07 06:14:00;;;;;;;3.6;3.5;;;;;;;-0.5;100.0;103770;;;;
2023/02/07 06:15:00;;;;;;;3.6;3.5;;;;;;;-0.6;100.0;103770;;;;
2023/02/07 06:16:00;;;;;;;3.6;3.5;;;;;;;-0.6;100.0;103770;;;;
2023/02/07 06:17:00;;;;;;;3.6;3.5;;;;;;;-0.7;100.0;103770;;;;
2023/02/07 06:18:00;;;;;;;3.6;3.5;;;;;;;-0.7;100.0;103770;;;;
2023/02/07 06:19:00;;;;;;;3.8;3.7;;;;;;;-0.6;100.0;103770;;;;
2023/02/07 06:20:00;;;;;;;3.8;3.7;;;;;;;-0.6;100.0;103770;;;;
2023/02/07 06:21:00;;;;;;;3.8;3.7;;;;;;;-0.7;100.0;103780;;;;
2023/02/07 06:22:00;;;;;;;3.8;3.7;;;;;;;-0.7;100.0;103780;;;;
2023/02/07 06:23:00;;;;;;;3.8;3.7;;;;;;;-0.8;100.0;103780;;;;
2023/02/07 06:24:00;;;;;;;3.8;3.7;;;;;;;-0.8;100.0;103780;;;;
2023/02/07 06:25:00;;;;;;;3.8;3.7;;;;;;;-1.0;100.0;103790;;;;
2023/02/07 06:26:00;;;;;;;3.8;3.7;;;;;;;-1.0;100.0;103790;;;;